Time;durP1;ratioP1;P1;durP2;ratioP2;P2;SDS_P1;SDS_P2;PMS_P1;PMS_P2;Temp;Humidity;BMP_temperature;BMP_pressure;BME280_temperature;BME280_humidity;BME280_pressure;Samples;Min_cycle;Max_cycle;Signal;HPM_P1;HPM_P2
2022/05/31 00:00:54;;;;;;;8.07;3.50;;;;;;;;;;4985356;28;20026;-50
2022/05/31 00:03:19;;;;;;;7.80;3.83;;;;;;;;;;4981301;28;20072;-50
2022/05/31 00:05:45;;;;;;;6.47;3.60;;;;;;;;;;4979185;28;20357;-49
2022/05/31 00:08:10;;;;;;;7.27;3.80;;;;;;;;;;4983032;28;20328;-50
2022/05/31 00:10:35;;;;;;;9.03;3.80;;;;;;;;;;4984595;28;20328;-50
2022/05/31 00:13:01;;;;;;;6.77;3.60;;;;;;;;;;4965987;28;20269;-50
2022/05/31 00:15:26;;;;;;;7.20;3.90;;;;;;;;;;4977148;28;20329;-49
2022/05/31 00:17:51;;;;;;;6.60;3.38;;;;;;;;;;4981870;28;20421;-50
2022/05/31 00:20:17;;;;;;;5.97;3.40;;;;;;;;;;4980730;28;20026;-50
2022/05/31 00:22:42;;;;;;;8.13;3.83;;;;;;;;;;4985939;28;20551;-51
2022/05/31 00:25:08;;;;;;;6.13;3.28;;;;;;;;;;4966967;28;20026;-50
2022/05/31 00:27:33;;;;;;;4.95;3.22;;;;;;;;;;4982976;28;20030;-50
2022/05/31 00:29:58;;;;;;;9.03;3.50;;;;;;;;;;4982726;28;20120;-51
2022/05/31 00:32:27;;;;;;;7.32;3.03;;;;;;;;;;4978638;28;20278;-50
2022/05/31 00:34:53;;;;;;;5.20;3.27;;;;;;;;;;4965766;28;20081;-50
2022/05/31 00:37:19;;;;;;;7.38;3.42;;;;;;;;;;4982827;28;20026;-50
2022/05/31 00:39:44;;;;;;;4.95;3.30;;;;;;;;;;4963953;28;20029;-50
2022/05/31 00:42:11;;;;;;;6.20;3.35;;;;;;;;;;4982318;28;20107;-50
2022/05/31 00:44:36;;;;;;;4.53;3.10;;;;;;;;;;4983306;28;20041;-50
2022/05/31 00:47:03;;;;;;;6.85;3.40;;;;;;;;;;4982463;28;20034;-50
2022/05/31 00:49:31;;;;;;;6.22;3.50;;;;;;;;;;4982358;28;20133;-50
2022/05/31 00:51:56;;;;;;;7.80;3.80;;;;;;;;;;4980946;28;20042;-50
2022/05/31 00:54:22;;;;;;;6.35;3.95;;;;;;;;;;4963998;28;20093;-50
2022/05/31 00:56:48;;;;;;;9.05;3.63;;;;;;;;;;4981658;28;20036;-49
2022/05/31 00:59:32;;;;;;;5.25;3.35;;;;;;;;;;4982150;28;20048;-49
2022/05/31 01:01:57;;;;;;;6.88;3.50;;;;;;;;;;4977191;28;20022;-49
2022/05/31 01:04:30;;;;;;;6.60;3.40;;;;;;;;;;4966068;28;20022;-50
2022/05/31 01:06:56;;;;;;;7.72;3.97;;;;;;;;;;4979493;28;20282;-50
2022/05/31 01:09:21;;;;;;;4.78;3.22;;;;;;;;;;4980711;28;20094;-50
2022/05/31 01:11:46;;;;;;;7.47;3.60;;;;;;;;;;4978554;28;20102;-49
2022/05/31 01:14:13;;;;;;;6.65;3.50;;;;;;;;;;4987091;28;20376;-50
2022/05/31 01:17:11;;;;;;;6.47;3.25;;;;;;;;;;4981722;28;20033;-50
2022/05/31 01:22:20;;;;;;;4.80;3.00;;;;;;;;;;4984604;28;20088;-49
2022/05/31 01:24:52;;;;;;;7.87;3.20;;;;;;;;;;4982576;28;20212;-50
2022/05/31 01:27:36;;;;;;;5.70;3.50;;;;;;;;;;4962512;28;20308;-49
2022/05/31 01:30:02;;;;;;;6.75;3.38;;;;;;;;;;4983442;28;20465;-50
2022/05/31 01:32:27;;;;;;;8.50;3.53;;;;;;;;;;4985444;28;20038;-50
2022/05/31 01:34:57;;;;;;;8.87;3.97;;;;;;;;;;4978789;28;20026;-50
2022/05/31 01:37:25;;;;;;;8.80;3.28;;;;;;;;;;4961654;28;20289;-50
2022/05/31 01:39:51;;;;;;;8.20;3.70;;;;;;;;;;4969203;28;20813;-51
2022/05/31 01:42:25;;;;;;;7.63;3.38;;;;;;;;;;4963185;28;20492;-50
2022/05/31 01:44:52;;;;;;;7.45;3.70;;;;;;;;;;4988108;28;20077;-50
2022/05/31 01:47:17;;;;;;;5.72;4.22;;;;;;;;;;4977768;28;20027;-51
2022/05/31 01:49:44;;;;;;;5.50;3.40;;;;;;;;;;4967684;28;20612;-51
2022/05/31 01:52:09;;;;;;;7.00;3.65;;;;;;;;;;4963012;28;20265;-50
2022/05/31 01:54:34;;;;;;;5.60;3.67;;;;;;;;;;4979130;28;20022;-50
2022/05/31 01:57:00;;;;;;;7.17;3.63;;;;;;;;;;4979578;28;20029;-50
2022/05/31 01:59:26;;;;;;;6.35;3.58;;;;;;;;;;4981398;28;20284;-50
2022/05/31 02:01:52;;;;;;;8.80;4.03;;;;;;;;;;4977104;28;20026;-49
2022/05/31 02:04:18;;;;;;;8.13;3.30;;;;;;;;;;4969817;28;20084;-50
2022/05/31 02:06:43;;;;;;;7.05;3.30;;;;;;;;;;4979468;28;20497;-50
2022/05/31 02:09:10;;;;;;;4.95;3.42;;;;;;;;;;4979248;28;20073;-50
2022/05/31 02:11:35;;;;;;;6.18;3.22;;;;;;;;;;4978923;28;20033;-50
2022/05/31 02:14:01;;;;;;;5.53;3.45;;;;;;;;;;4985600;28;20030;-49
2022/05/31 02:16:26;;;;;;;5.78;3.45;;;;;;;;;;4981778;28;20018;-50
2022/05/31 02:21:36;;;;;;;8.98;3.30;;;;;;;;;;4976806;28;20065;-52
2022/05/31 02:24:05;;;;;;;5.80;3.17;;;;;;;;;;4982906;28;20022;-50
2022/05/31 02:26:30;;;;;;;6.25;3.42;;;;;;;;;;4982228;28;20030;-50
2022/05/31 02:28:55;;;;;;;6.10;3.30;;;;;;;;;;4981734;28;20520;-51
2022/05/31 02:31:21;;;;;;;9.30;4.03;;;;;;;;;;4976299;28;20021;-51
2022/05/31 02:33:46;;;;;;;4.93;3.07;;;;;;;;;;4978661;28;20712;-50
2022/05/31 02:36:11;;;;;;;6.90;3.35;;;;;;;;;;4975341;28;20337;-50
2022/05/31 02:38:36;;;;;;;6.50;3.70;;;;;;;;;;4978404;28;20041;-50
2022/05/31 02:41:01;;;;;;;3.93;3.30;;;;;;;;;;4979298;28;20356;-49
2022/05/31 02:43:27;;;;;;;7.23;3.17;;;;;;;;;;4989708;28;20784;-49
2022/05/31 02:45:52;;;;;;;7.03;3.53;;;;;;;;;;4986083;28;20320;-51
2022/05/31 02:48:17;;;;;;;5.80;3.30;;;;;;;;;;4979761;28;20302;-49
2022/05/31 02:50:43;;;;;;;6.93;3.40;;;;;;;;;;4979153;28;20298;-50
2022/05/31 02:53:08;;;;;;;8.07;3.33;;;;;;;;;;4983389;28;20460;-50
2022/05/31 02:55:33;;;;;;;7.45;3.15;;;;;;;;;;4982739;28;20122;-50
2022/05/31 02:57:59;;;;;;;7.20;3.33;;;;;;;;;;4981288;28;20441;-50
2022/05/31 03:00:24;;;;;;;8.70;4.27;;;;;;;;;;4982413;28;20494;-50
2022/05/31 03:02:49;;;;;;;9.60;4.00;;;;;;;;;;4981525;28;20292;-49
2022/05/31 03:05:14;;;;;;;5.93;3.30;;;;;;;;;;4981470;28;20515;-51
2022/05/31 03:07:40;;;;;;;5.10;3.40;;;;;;;;;;4980762;28;20629;-49
2022/05/31 03:10:05;;;;;;;6.57;3.30;;;;;;;;;;4982597;28;20322;-50
2022/05/31 03:12:30;;;;;;;5.97;3.85;;;;;;;;;;4982262;28;20332;-50
2022/05/31 03:14:58;;;;;;;6.75;3.33;;;;;;;;;;4982994;28;20093;-50
2022/05/31 03:17:26;;;;;;;5.85;3.78;;;;;;;;;;4983407;28;20054;-50
2022/05/31 03:20:02;;;;;;;7.18;3.65;;;;;;;;;;4986727;28;20449;-49
2022/05/31 03:22:28;;;;;;;7.00;3.40;;;;;;;;;;4984665;28;20022;-50
2022/05/31 03:24:58;;;;;;;5.47;3.72;;;;;;;;;;4982075;28;20031;-49
2022/05/31 03:27:24;;;;;;;7.10;3.63;;;;;;;;;;4985533;28;20018;-50
2022/05/31 03:29:50;;;;;;;5.82;3.47;;;;;;;;;;4987024;28;20026;-50
2022/05/31 03:32:15;;;;;;;5.65;3.08;;;;;;;;;;4981398;28;20019;-50
2022/05/31 03:34:41;;;;;;;7.00;3.50;;;;;;;;;;4981284;28;20022;-50
2022/05/31 03:37:06;;;;;;;7.35;3.50;;;;;;;;;;4980033;28;20034;-50
2022/05/31 03:39:31;;;;;;;7.17;3.73;;;;;;;;;;4985778;28;20002;-50
2022/05/31 03:41:56;;;;;;;6.75;3.95;;;;;;;;;;4977054;28;21877;-50
2022/05/31 03:44:22;;;;;;;7.40;3.80;;;;;;;;;;4983543;28;20014;-51
2022/05/31 03:46:50;;;;;;;7.60;3.58;;;;;;;;;;4982539;28;20261;-50
2022/05/31 03:49:15;;;;;;;5.78;3.97;;;;;;;;;;4982338;28;20054;-50
2022/05/31 03:51:40;;;;;;;6.23;3.80;;;;;;;;;;4985411;28;20530;-50
2022/05/31 03:54:05;;;;;;;8.32;4.25;;;;;;;;;;4980866;28;20269;-51
2022/05/31 03:56:31;;;;;;;7.75;4.03;;;;;;;;;;4983471;28;20422;-51
2022/05/31 03:58:56;;;;;;;8.77;4.20;;;;;;;;;;4987821;28;20342;-51
2022/05/31 04:01:21;;;;;;;6.57;4.00;;;;;;;;;;4983381;28;20359;-51
2022/05/31 04:03:46;;;;;;;6.93;4.07;;;;;;;;;;4980703;28;20108;-51
2022/05/31 04:06:12;;;;;;;7.78;3.75;;;;;;;;;;4985714;28;20385;-51
2022/05/31 04:08:37;;;;;;;10.33;4.13;;;;;;;;;;4986475;28;20053;-51
2022/05/31 04:11:02;;;;;;;6.28;4.20;;;;;;;;;;4979486;28;20657;-51
2022/05/31 04:13:28;;;;;;;6.70;4.00;;;;;;;;;;4985742;28;20477;-51
2022/05/31 04:16:10;;;;;;;8.32;4.18;;;;;;;;;;4984667;28;20360;-51
2022/05/31 04:18:37;;;;;;;6.25;4.10;;;;;;;;;;4969296;28;20509;-51
2022/05/31 04:21:02;;;;;;;9.02;4.45;;;;;;;;;;4979722;28;20035;-51
2022/05/31 04:26:12;;;;;;;12.43;4.85;;;;;;;;;;4981461;28;20679;-51
2022/05/31 04:28:37;;;;;;;6.37;4.40;;;;;;;;;;4983114;28;20936;-51
2022/05/31 04:31:02;;;;;;;11.47;4.70;;;;;;;;;;4986461;28;20753;-51
2022/05/31 04:33:28;;;;;;;7.68;3.95;;;;;;;;;;4985127;28;20272;-51
2022/05/31 04:35:59;;;;;;;8.63;4.37;;;;;;;;;;4976405;28;20030;-51
2022/05/31 04:38:25;;;;;;;8.93;4.20;;;;;;;;;;4983600;28;20279;-52
2022/05/31 04:40:50;;;;;;;12.70;4.70;;;;;;;;;;4977767;28;20029;-55
2022/05/31 04:43:15;;;;;;;9.77;4.57;;;;;;;;;;4990494;28;20033;-51
2022/05/31 04:45:41;;;;;;;12.03;4.50;;;;;;;;;;4979193;28;20270;-51
2022/05/31 04:48:06;;;;;;;9.73;4.18;;;;;;;;;;4979320;28;20309;-50
2022/05/31 04:50:31;;;;;;;11.73;4.50;;;;;;;;;;4986767;28;20046;-51
2022/05/31 04:52:56;;;;;;;6.57;3.70;;;;;;;;;;4980521;28;20277;-51
2022/05/31 04:55:22;;;;;;;11.00;4.97;;;;;;;;;;4982658;28;20749;-51
2022/05/31 04:57:47;;;;;;;9.63;4.30;;;;;;;;;;4982760;28;20335;-51
2022/05/31 05:00:13;;;;;;;8.73;4.53;;;;;;;;;;4979774;28;20266;-51
2022/05/31 05:02:38;;;;;;;8.60;4.07;;;;;;;;;;4976331;28;20270;-50
2022/05/31 05:05:03;;;;;;;8.80;4.97;;;;;;;;;;4979922;28;20581;-51
2022/05/31 05:07:30;;;;;;;8.27;4.15;;;;;;;;;;4981348;28;20088;-50
2022/05/31 05:09:55;;;;;;;9.27;4.43;;;;;;;;;;4979608;28;20018;-51
2022/05/31 05:12:20;;;;;;;9.30;4.27;;;;;;;;;;4979631;28;20041;-51
2022/05/31 05:14:46;;;;;;;8.20;4.22;;;;;;;;;;4978899;28;20037;-50
2022/05/31 05:17:11;;;;;;;9.75;5.63;;;;;;;;;;4981710;28;20028;-51
2022/05/31 05:19:36;;;;;;;10.48;5.03;;;;;;;;;;4978395;28;20122;-51
2022/05/31 05:22:01;;;;;;;8.88;4.47;;;;;;;;;;4978962;28;20998;-52
2022/05/31 05:24:27;;;;;;;8.98;4.15;;;;;;;;;;4979235;28;20022;-51
2022/05/31 05:26:52;;;;;;;7.73;4.50;;;;;;;;;;4980224;28;20031;-50
2022/05/31 05:32:04;;;;;;;8.68;4.15;;;;;;;;;;4979541;28;20041;-50
2022/05/31 05:34:30;;;;;;;10.00;4.50;;;;;;;;;;4985619;28;20153;-51
2022/05/31 05:36:55;;;;;;;8.40;4.10;;;;;;;;;;4982576;28;20480;-51
2022/05/31 05:39:20;;;;;;;7.30;4.10;;;;;;;;;;4983954;28;20274;-50
2022/05/31 05:41:47;;;;;;;7.73;4.10;;;;;;;;;;4980796;28;20544;-50
2022/05/31 05:44:12;;;;;;;9.18;4.70;;;;;;;;;;4980908;28;20365;-50
2022/05/31 05:46:37;;;;;;;8.50;4.40;;;;;;;;;;4979390;28;20176;-51
2022/05/31 05:49:03;;;;;;;6.80;4.10;;;;;;;;;;4982209;28;20310;-50
2022/05/31 05:51:29;;;;;;;11.38;4.68;;;;;;;;;;4986546;28;20018;-51
2022/05/31 05:53:54;;;;;;;9.77;4.45;;;;;;;;;;4985015;28;20027;-51
2022/05/31 05:56:20;;;;;;;8.18;4.10;;;;;;;;;;4981656;28;20018;-51
2022/05/31 05:58:45;;;;;;;8.48;4.50;;;;;;;;;;4982197;28;20105;-51
2022/05/31 06:01:31;;;;;;;7.35;4.35;;;;;;;;;;4989866;28;20014;-50
2022/05/31 06:03:59;;;;;;;7.07;4.20;;;;;;;;;;4973815;28;20038;-50
2022/05/31 06:06:24;;;;;;;7.40;4.32;;;;;;;;;;4979724;28;21682;-51
2022/05/31 06:08:54;;;;;;;9.70;4.83;;;;;;;;;;4989465;28;20038;-52
2022/05/31 06:11:19;;;;;;;8.25;4.65;;;;;;;;;;4966549;28;20301;-51
2022/05/31 06:13:49;;;;;;;11.27;4.50;;;;;;;;;;4986230;28;20058;-50
2022/05/31 06:16:14;;;;;;;8.65;4.60;;;;;;;;;;4980256;28;20018;-52
2022/05/31 06:18:43;;;;;;;8.38;4.53;;;;;;;;;;4983496;28;20548;-50
2022/05/31 06:21:08;;;;;;;9.23;4.57;;;;;;;;;;4984248;28;20502;-51
2022/05/31 06:23:34;;;;;;;8.43;5.32;;;;;;;;;;4978006;28;20217;-50
2022/05/31 06:25:59;;;;;;;10.05;5.18;;;;;;;;;;4981547;28;20030;-50
2022/05/31 06:28:24;;;;;;;13.17;6.00;;;;;;;;;;4978862;28;20434;-50
2022/05/31 06:30:49;;;;;;;10.73;5.93;;;;;;;;;;4982534;28;20284;-49
2022/05/31 06:33:15;;;;;;;10.30;5.90;;;;;;;;;;4981616;28;20312;-51
2022/05/31 06:35:40;;;;;;;9.47;5.90;;;;;;;;;;4986883;28;20257;-51
2022/05/31 06:38:05;;;;;;;10.93;5.83;;;;;;;;;;4966667;28;20858;-49
2022/05/31 06:40:30;;;;;;;11.43;5.72;;;;;;;;;;4986502;28;20061;-49
2022/05/31 06:42:58;;;;;;;15.98;6.10;;;;;;;;;;4966728;28;20072;-49
2022/05/31 06:45:23;;;;;;;10.27;6.35;;;;;;;;;;4984126;28;20457;-51
2022/05/31 06:47:49;;;;;;;12.13;5.90;;;;;;;;;;4979129;28;20109;-51
2022/05/31 06:50:14;;;;;;;11.82;7.07;;;;;;;;;;4985077;28;20045;-50
2022/05/31 06:58:07;;;;;;;11.25;6.18;;;;;;;;;;4986100;28;20025;-52
2022/05/31 07:00:33;;;;;;;10.50;5.83;;;;;;;;;;4991370;28;20049;-51
2022/05/31 07:02:59;;;;;;;11.80;6.20;;;;;;;;;;4986118;28;20270;-52
2022/05/31 07:05:24;;;;;;;10.20;5.97;;;;;;;;;;4982733;28;20360;-51
2022/05/31 07:07:51;;;;;;;9.63;5.57;;;;;;;;;;4980816;28;20037;-52
2022/05/31 07:10:16;;;;;;;12.07;5.70;;;;;;;;;;4987179;28;20101;-50
2022/05/31 07:12:42;;;;;;;11.52;5.72;;;;;;;;;;4989185;28;20084;-50
2022/05/31 07:15:07;;;;;;;10.98;5.90;;;;;;;;;;4981964;28;20014;-52
2022/05/31 07:17:32;;;;;;;13.52;5.80;;;;;;;;;;4965197;28;20038;-52
2022/05/31 07:19:58;;;;;;;11.90;6.43;;;;;;;;;;4982642;28;20030;-51
2022/05/31 07:22:23;;;;;;;13.80;5.45;;;;;;;;;;4985109;28;20575;-50
2022/05/31 07:24:48;;;;;;;9.10;5.22;;;;;;;;;;4985764;28;20123;-51
2022/05/31 07:27:15;;;;;;;11.47;5.50;;;;;;;;;;4984462;28;20049;-52
2022/05/31 07:29:40;;;;;;;9.65;5.82;;;;;;;;;;4982755;28;20113;-50
2022/05/31 07:32:05;;;;;;;10.35;5.40;;;;;;;;;;4986610;28;20192;-50
2022/05/31 07:34:31;;;;;;;10.50;5.50;;;;;;;;;;4987309;28;20421;-50
2022/05/31 07:36:56;;;;;;;10.48;5.20;;;;;;;;;;4987023;28;20054;-51
2022/05/31 07:39:22;;;;;;;8.63;5.00;;;;;;;;;;4985072;28;20036;-50
2022/05/31 07:41:49;;;;;;;12.80;5.40;;;;;;;;;;4984666;28;20568;-50
2022/05/31 07:44:14;;;;;;;9.95;4.95;;;;;;;;;;4985683;28;20056;-50
2022/05/31 07:46:40;;;;;;;11.80;5.70;;;;;;;;;;4982996;28;20403;-50
2022/05/31 07:49:05;;;;;;;12.20;5.87;;;;;;;;;;4983842;28;20397;-51
2022/05/31 07:51:30;;;;;;;9.80;5.25;;;;;;;;;;4985986;28;20038;-51
2022/05/31 07:53:56;;;;;;;11.30;4.73;;;;;;;;;;4984945;28;20049;-51
2022/05/31 07:56:21;;;;;;;9.80;5.73;;;;;;;;;;4981555;28;20045;-50
2022/05/31 07:58:46;;;;;;;8.68;4.80;;;;;;;;;;4982678;28;20282;-50
2022/05/31 08:01:13;;;;;;;9.38;4.63;;;;;;;;;;4990094;28;20030;-51
2022/05/31 08:03:38;;;;;;;9.38;4.47;;;;;;;;;;4988545;28;20211;-51
2022/05/31 08:06:04;;;;;;;10.68;4.63;;;;;;;;;;4990217;28;20501;-51
2022/05/31 08:08:30;;;;;;;9.65;5.07;;;;;;;;;;4981175;28;20067;-51
2022/05/31 08:10:56;;;;;;;8.38;4.38;;;;;;;;;;4969053;28;20437;-51
2022/05/31 08:13:21;;;;;;;9.57;4.93;;;;;;;;;;4983201;28;20038;-52
2022/05/31 08:15:46;;;;;;;10.10;4.80;;;;;;;;;;4983416;28;20037;-50
2022/05/31 08:18:11;;;;;;;9.30;4.80;;;;;;;;;;4983591;28;20284;-50
2022/05/31 08:20:37;;;;;;;11.77;4.77;;;;;;;;;;4983550;28;20270;-50
2022/05/31 08:23:02;;;;;;;7.72;4.38;;;;;;;;;;4987780;28;20298;-50
2022/05/31 08:25:28;;;;;;;9.23;4.20;;;;;;;;;;4985394;28;20089;-50
2022/05/31 08:27:53;;;;;;;11.77;4.27;;;;;;;;;;4983249;28;20829;-51
2022/05/31 08:30:18;;;;;;;8.77;4.30;;;;;;;;;;4982335;28;20369;-52
2022/05/31 08:32:43;;;;;;;7.27;3.87;;;;;;;;;;4984567;28;20277;-50
2022/05/31 08:35:09;;;;;;;11.97;4.23;;;;;;;;;;4984956;28;20644;-51
2022/05/31 08:37:34;;;;;;;8.27;3.77;;;;;;;;;;4979354;28;20273;-50
2022/05/31 08:39:59;;;;;;;9.03;4.17;;;;;;;;;;4980862;28;20760;-50
2022/05/31 08:42:28;;;;;;;10.17;4.53;;;;;;;;;;4986484;28;20125;-50
2022/05/31 08:45:00;;;;;;;8.90;4.30;;;;;;;;;;4979904;28;20265;-52
2022/05/31 08:47:35;;;;;;;10.50;3.90;;;;;;;;;;4979349;28;20133;-50
2022/05/31 08:52:54;;;;;;;9.27;4.13;;;;;;;;;;4984857;28;20049;-51
2022/05/31 08:58:13;;;;;;;11.10;4.28;;;;;;;;;;4968979;28;20029;-51
2022/05/31 09:00:42;;;;;;;7.68;3.75;;;;;;;;;;4983303;28;20022;-51
2022/05/31 09:03:10;;;;;;;9.20;4.65;;;;;;;;;;4968288;28;20030;-50
2022/05/31 09:05:50;;;;;;;9.63;3.95;;;;;;;;;;4972227;28;20044;-51
2022/05/31 09:08:18;;;;;;;6.82;3.72;;;;;;;;;;4982330;28;20034;-51
2022/05/31 09:10:46;;;;;;;7.38;3.70;;;;;;;;;;4968744;28;20097;-49
2022/05/31 09:13:26;;;;;;;7.32;3.90;;;;;;;;;;4983121;28;20032;-50
2022/05/31 09:15:53;;;;;;;6.57;3.33;;;;;;;;;;4981830;28;20110;-51
2022/05/31 09:18:18;;;;;;;5.82;3.20;;;;;;;;;;4982270;28;20211;-49
2022/05/31 09:20:53;;;;;;;6.30;3.10;;;;;;;;;;4983929;28;20509;-50
2022/05/31 09:23:21;;;;;;;6.05;3.53;;;;;;;;;;4967856;28;20037;-49
2022/05/31 09:25:46;;;;;;;7.78;3.33;;;;;;;;;;4964506;28;20018;-49
2022/05/31 09:28:19;;;;;;;7.30;3.70;;;;;;;;;;4986258;28;20507;-51
2022/05/31 09:30:44;;;;;;;9.68;3.72;;;;;;;;;;4982943;28;20109;-49
2022/05/31 09:33:15;;;;;;;7.53;3.37;;;;;;;;;;4969594;28;20113;-51
2022/05/31 09:35:52;;;;;;;7.22;3.45;;;;;;;;;;4970602;28;20285;-50
2022/05/31 09:38:24;;;;;;;5.72;3.05;;;;;;;;;;4981936;28;20022;-50
2022/05/31 09:41:06;;;;;;;6.03;3.60;;;;;;;;;;4975946;28;20434;-50
2022/05/31 09:43:37;;;;;;;7.03;3.13;;;;;;;;;;4966869;28;20110;-51
2022/05/31 09:46:04;;;;;;;6.38;3.08;;;;;;;;;;4987581;28;20033;-52
2022/05/31 09:48:29;;;;;;;7.50;3.10;;;;;;;;;;4985371;28;20046;-51
2022/05/31 09:51:01;;;;;;;8.40;3.30;;;;;;;;;;4987718;28;20026;-51
2022/05/31 09:59:05;;;;;;;6.18;3.05;;;;;;;;;;4968280;28;20552;-52
2022/05/31 10:01:31;;;;;;;8.13;3.25;;;;;;;;;;4983532;28;20029;-52
2022/05/31 10:04:00;;;;;;;8.13;3.03;;;;;;;;;;4987176;28;20035;-51
2022/05/31 10:06:26;;;;;;;7.22;3.00;;;;;;;;;;4985754;28;20018;-50
2022/05/31 10:08:52;;;;;;;5.25;2.90;;;;;;;;;;4982461;28;20034;-50
2022/05/31 10:11:23;;;;;;;6.97;3.03;;;;;;;;;;4982088;28;20018;-50
2022/05/31 10:14:27;;;;;;;5.32;2.92;;;;;;;;;;4979385;28;20398;-51
2022/05/31 10:16:54;;;;;;;6.03;2.83;;;;;;;;;;4881572;29;20152;-51
2022/05/31 10:19:22;;;;;;;6.20;3.20;;;;;;;;;;4880771;29;20029;-51
2022/05/31 10:21:47;;;;;;;5.85;2.80;;;;;;;;;;4931848;28;20174;-51
2022/05/31 10:24:16;;;;;;;5.33;3.07;;;;;;;;;;4982592;28;20117;-51
2022/05/31 10:26:41;;;;;;;6.15;2.83;;;;;;;;;;4978706;28;20277;-50
2022/05/31 10:29:12;;;;;;;5.93;2.88;;;;;;;;;;4980025;28;20034;-52
2022/05/31 10:31:41;;;;;;;5.97;2.90;;;;;;;;;;4979840;28;20145;-50
2022/05/31 10:34:26;;;;;;;5.85;3.25;;;;;;;;;;4981193;28;20238;-53
2022/05/31 10:36:52;;;;;;;6.13;2.83;;;;;;;;;;4979676;28;20030;-51
2022/05/31 10:39:18;;;;;;;6.32;2.90;;;;;;;;;;4979139;28;20026;-50
2022/05/31 10:41:44;;;;;;;5.53;2.72;;;;;;;;;;4964319;28;20038;-51
2022/05/31 10:44:21;;;;;;;3.60;2.53;;;;;;;;;;4948039;28;20022;-51
2022/05/31 10:46:48;;;;;;;4.35;3.00;;;;;;;;;;4977995;28;20057;-50
2022/05/31 10:49:20;;;;;;;5.45;3.33;;;;;;;;;;4978852;28;20050;-50
2022/05/31 10:52:04;;;;;;;5.78;3.10;;;;;;;;;;4981935;28;20022;-51
2022/05/31 10:54:42;;;;;;;6.28;2.80;;;;;;;;;;4965960;28;20030;-51
2022/05/31 10:57:10;;;;;;;5.35;2.63;;;;;;;;;;4980896;28;20030;-52
2022/05/31 10:59:36;;;;;;;5.13;2.72;;;;;;;;;;4986538;28;20128;-51
2022/05/31 11:02:20;;;;;;;7.32;3.25;;;;;;;;;;4971066;28;20093;-50
2022/05/31 11:04:53;;;;;;;6.18;2.72;;;;;;;;;;4987172;28;20022;-50
2022/05/31 11:07:31;;;;;;;4.65;2.70;;;;;;;;;;4970116;28;20030;-51
2022/05/31 11:12:49;;;;;;;3.95;2.65;;;;;;;;;;4984799;28;20045;-51
2022/05/31 11:15:44;;;;;;;6.30;3.00;;;;;;;;;;4981870;28;20031;-51
2022/05/31 11:18:17;;;;;;;4.88;2.72;;;;;;;;;;4968432;28;20475;-50
2022/05/31 11:20:45;;;;;;;4.68;2.67;;;;;;;;;;4967795;28;20040;-52
2022/05/31 11:23:21;;;;;;;3.70;2.65;;;;;;;;;;4982438;28;20383;-51
2022/05/31 11:25:58;;;;;;;4.38;2.78;;;;;;;;;;4984454;28;20097;-51
2022/05/31 11:28:24;;;;;;;5.03;2.50;;;;;;;;;;4983361;28;20056;-52
2022/05/31 11:31:07;;;;;;;5.90;2.80;;;;;;;;;;4984633;28;20549;-50
2022/05/31 11:33:43;;;;;;;4.03;2.45;;;;;;;;;;4984114;28;20109;-51
2022/05/31 11:36:11;;;;;;;5.13;2.60;;;;;;;;;;4986920;28;20022;-52
2022/05/31 11:38:42;;;;;;;4.70;2.72;;;;;;;;;;4987813;28;20036;-49
2022/05/31 11:41:16;;;;;;;3.97;2.50;;;;;;;;;;4984480;28;20062;-51
2022/05/31 11:43:56;;;;;;;5.25;2.75;;;;;;;;;;4984766;28;20034;-50
2022/05/31 11:46:54;;;;;;;4.78;2.63;;;;;;;;;;4985076;28;20096;-52
2022/05/31 11:49:29;;;;;;;5.20;2.28;;;;;;;;;;4952165;28;20551;-50
2022/05/31 11:52:00;;;;;;;3.67;2.28;;;;;;;;;;4966896;28;20042;-50
2022/05/31 11:54:44;;;;;;;4.93;2.60;;;;;;;;;;4983921;28;20026;-51
2022/05/31 11:57:14;;;;;;;3.80;2.55;;;;;;;;;;4981352;28;20411;-52
2022/05/31 11:59:39;;;;;;;;;;;;;;;;;;4968185;28;20022;-51
2022/05/31 12:02:24;;;;;;;11.85;2.58;;;;;;;;;;4980694;28;19921;-52
2022/05/31 12:05:11;;;;;;;3.70;2.50;;;;;;;;;;4970969;28;20113;-49
2022/05/31 12:07:47;;;;;;;4.93;2.20;;;;;;;;;;4982132;28;20065;-51
2022/05/31 12:10:42;;;;;;;4.63;2.55;;;;;;;;;;4968854;28;20133;-49
2022/05/31 12:13:08;;;;;;;4.97;2.22;;;;;;;;;;4976970;28;20057;-50
2022/05/31 12:15:34;;;;;;;4.18;2.33;;;;;;;;;;4968791;28;20498;-51
2022/05/31 12:18:12;;;;;;;13.48;2.40;;;;;;;;;;4963873;28;20027;-54
2022/05/31 12:20:40;;;;;;;4.35;2.28;;;;;;;;;;4984701;28;20026;-51
2022/05/31 12:23:08;;;;;;;6.00;2.42;;;;;;;;;;4949081;28;20494;-51
2022/05/31 12:25:34;;;;;;;4.07;2.45;;;;;;;;;;4988086;28;20129;-51
2022/05/31 12:28:18;;;;;;;3.55;2.30;;;;;;;;;;4969939;28;20038;-51
2022/05/31 12:30:55;;;;;;;3.05;2.17;;;;;;;;;;4980447;28;20490;-51
2022/05/31 12:33:35;;;;;;;5.53;2.45;;;;;;;;;;4983862;28;20097;-51
2022/05/31 12:36:01;;;;;;;4.18;2.17;;;;;;;;;;4984442;28;20022;-50
2022/05/31 12:38:26;;;;;;;4.03;2.10;;;;;;;;;;4985090;28;20026;-52
2022/05/31 12:40:52;;;;;;;3.73;2.27;;;;;;;;;;4966767;28;20430;-50
2022/05/31 12:43:33;;;;;;;5.20;2.22;;;;;;;;;;4983749;28;20278;-51
2022/05/31 12:45:58;;;;;;;3.33;2.13;;;;;;;;;;4981598;28;20034;-50
2022/05/31 12:48:25;;;;;;;5.10;2.10;;;;;;;;;;4984894;28;20042;-50
2022/05/31 12:50:56;;;;;;;8.02;2.20;;;;;;;;;;4964912;28;20294;-50
2022/05/31 12:53:39;;;;;;;3.63;2.15;;;;;;;;;;4989001;28;20034;-52
2022/05/31 12:56:25;;;;;;;4.43;2.08;;;;;;;;;;4983660;28;20110;-50
2022/05/31 12:58:50;;;;;;;4.97;2.15;;;;;;;;;;4977399;28;20051;-50
2022/05/31 13:01:22;;;;;;;4.95;1.88;;;;;;;;;;4986574;28;20141;-52
2022/05/31 13:03:50;;;;;;;2.67;1.80;;;;;;;;;;4982703;28;20027;-48
2022/05/31 13:06:27;;;;;;;4.63;2.08;;;;;;;;;;4984238;28;20030;-50
2022/05/31 13:08:59;;;;;;;4.28;2.00;;;;;;;;;;4981603;28;20034;-50
2022/05/31 13:19:41;;;;;;;4.18;2.00;;;;;;;;;;4981008;28;20078;-49
2022/05/31 13:22:07;;;;;;;5.07;2.45;;;;;;;;;;4985547;28;20030;-51
2022/05/31 13:24:33;;;;;;;4.20;1.60;;;;;;;;;;4980837;28;20109;-50
2022/05/31 13:26:58;;;;;;;4.20;2.00;;;;;;;;;;4971800;28;20070;-50
2022/05/31 13:29:24;;;;;;;4.03;1.90;;;;;;;;;;4965410;28;20061;-50
2022/05/31 13:31:49;;;;;;;3.60;2.00;;;;;;;;;;4984514;28;20054;-50
2022/05/31 13:34:22;;;;;;;4.03;2.07;;;;;;;;;;4983873;28;20765;-50
2022/05/31 13:36:48;;;;;;;4.95;1.75;;;;;;;;;;4983126;28;20058;-51
2022/05/31 13:39:14;;;;;;;4.63;1.90;;;;;;;;;;4965951;28;20049;-50
2022/05/31 13:41:55;;;;;;;3.13;1.67;;;;;;;;;;4966318;28;20035;-50
2022/05/31 13:44:22;;;;;;;3.33;1.95;;;;;;;;;;4985386;28;20014;-52
2022/05/31 13:46:47;;;;;;;6.20;2.03;;;;;;;;;;4983427;28;20022;-51
2022/05/31 13:49:31;;;;;;;3.88;2.20;;;;;;;;;;4985779;28;20190;-51
2022/05/31 13:51:57;;;;;;;6.35;1.92;;;;;;;;;;4985535;28;20034;-51
2022/05/31 13:54:23;;;;;;;3.65;2.00;;;;;;;;;;4984010;28;20033;-51
2022/05/31 13:56:49;;;;;;;6.97;2.15;;;;;;;;;;4981573;28;20028;-50
2022/05/31 13:59:28;;;;;;;3.80;1.73;;;;;;;;;;4965630;28;20101;-51
2022/05/31 14:01:53;;;;;;;3.20;1.73;;;;;;;;;;4980237;28;20615;-51
2022/05/31 14:04:19;;;;;;;4.23;1.90;;;;;;;;;;4980272;28;20482;-51
2022/05/31 14:06:44;;;;;;;3.90;1.80;;;;;;;;;;4983139;28;20478;-51
2022/05/31 14:09:12;;;;;;;3.78;1.77;;;;;;;;;;4986911;28;20525;-53
2022/05/31 14:11:44;;;;;;;4.57;2.47;;;;;;;;;;4967521;28;20028;-53
2022/05/31 14:14:28;;;;;;;5.03;1.90;;;;;;;;;;4982092;28;20015;-52
2022/05/31 14:16:55;;;;;;;7.68;2.30;;;;;;;;;;4982306;28;20026;-53
2022/05/31 14:19:21;;;;;;;4.22;1.90;;;;;;;;;;4978630;28;20790;-53
2022/05/31 14:21:47;;;;;;;5.13;2.65;;;;;;;;;;4986316;28;20026;-53
2022/05/31 14:24:13;;;;;;;4.78;2.08;;;;;;;;;;4985387;28;20022;-52
2022/05/31 14:26:42;;;;;;;5.25;2.40;;;;;;;;;;4984166;28;20025;-52
2022/05/31 14:29:11;;;;;;;5.10;2.20;;;;;;;;;;4984236;28;20116;-52
2022/05/31 14:31:40;;;;;;;3.95;2.15;;;;;;;;;;4985678;28;20014;-52
2022/05/31 14:34:06;;;;;;;4.93;2.28;;;;;;;;;;4988349;28;20023;-51
2022/05/31 14:36:33;;;;;;;6.05;2.25;;;;;;;;;;4984949;28;20469;-52
2022/05/31 14:38:58;;;;;;;5.00;2.40;;;;;;;;;;4969548;28;20113;-52
2022/05/31 14:41:29;;;;;;;4.67;2.47;;;;;;;;;;4986746;28;20275;-53
2022/05/31 14:43:55;;;;;;;4.75;2.30;;;;;;;;;;4984369;28;20273;-52
2022/05/31 14:46:27;;;;;;;6.75;2.30;;;;;;;;;;4969935;28;20035;-52
2022/05/31 14:49:03;;;;;;;5.97;2.28;;;;;;;;;;4983866;28;20046;-51
2022/05/31 14:51:30;;;;;;;6.88;2.28;;;;;;;;;;4987318;28;20046;-52
2022/05/31 14:53:55;;;;;;;5.60;2.35;;;;;;;;;;4987065;28;20302;-52
2022/05/31 14:56:39;;;;;;;5.63;2.30;;;;;;;;;;4986479;28;20884;-52
2022/05/31 14:59:07;;;;;;;6.60;2.30;;;;;;;;;;4986743;28;20273;-52
2022/05/31 15:01:44;;;;;;;5.47;2.95;;;;;;;;;;4986576;28;20413;-53
2022/05/31 15:04:12;;;;;;;5.82;2.22;;;;;;;;;;4985867;28;20342;-52
2022/05/31 15:06:38;;;;;;;4.55;2.35;;;;;;;;;;4986550;28;20188;-52
2022/05/31 15:09:04;;;;;;;6.95;2.78;;;;;;;;;;4991874;28;20042;-52
2022/05/31 15:19:25;;;;;;;7.80;3.50;;;;;;;;;;4985869;28;20026;-52
2022/05/31 15:21:50;;;;;;;6.93;3.70;;;;;;;;;;4985962;28;20027;-52
2022/05/31 15:24:15;;;;;;;6.93;3.80;;;;;;;;;;4987233;28;20022;-51
2022/05/31 15:26:41;;;;;;;9.23;3.80;;;;;;;;;;4985716;28;20770;-51
2022/05/31 15:29:06;;;;;;;7.70;3.63;;;;;;;;;;4985363;28;20297;-52
2022/05/31 15:31:35;;;;;;;8.20;4.43;;;;;;;;;;4988066;28;20881;-53
2022/05/31 15:34:00;;;;;;;7.57;4.15;;;;;;;;;;4985607;28;20317;-53